createdAt,value
2022-11-01T00:01:26.319Z,85.62
2022-11-01T00:03:52.728Z,86.19
2022-11-01T00:06:19.591Z,87.12
2022-11-01T00:08:46.057Z,86.68
2022-11-01T00:11:15.037Z,86.84
2022-11-01T00:13:41.611Z,87.20
2022-11-01T00:16:08.210Z,86.91
2022-11-01T00:18:34.782Z,86.59
2022-11-01T00:21:01.235Z,87.67
2022-11-01T00:23:27.918Z,86.86
2022-11-01T00:25:54.401Z,87.01
2022-11-01T00:28:20.995Z,87.63
2022-11-01T00:30:51.954Z,87.40
2022-11-01T00:33:18.400Z,87.09
2022-11-01T00:35:47.000Z,86.93
2022-11-01T00:38:13.915Z,87.62
2022-11-01T00:40:40.379Z,87.15
2022-11-01T00:43:06.848Z,87.45
2022-11-01T00:45:33.307Z,88.12
2022-11-01T00:48:00.029Z,88.69
2022-11-01T00:50:26.785Z,89.67
2022-11-01T00:52:55.334Z,89.05
2022-11-01T00:55:21.792Z,89.48
2022-11-01T00:57:48.286Z,89.61
2022-11-01T01:00:16.187Z,89.76
2022-11-01T01:02:42.806Z,89.58
2022-11-01T01:05:10.296Z,89.75
2022-11-01T01:07:36.904Z,89.43
2022-11-01T01:10:05.694Z,89.90
2022-11-01T01:12:32.509Z,90.52
2022-11-01T01:14:59.003Z,90.29
2022-11-01T01:17:27.624Z,90.47
2022-11-01T01:19:56.545Z,90.27
2022-11-01T01:22:23.053Z,90.08
2022-11-01T01:24:49.544Z,90.32
2022-11-01T01:27:17.517Z,89.96
2022-11-01T01:29:44.713Z,89.95
2022-11-01T01:32:20.714Z,90.28
2022-11-01T01:34:47.418Z,90.52
2022-11-01T01:37:15.269Z,90.20
2022-11-01T01:39:42.115Z,89.68
2022-11-01T01:42:28.931Z,89.71
2022-11-01T01:44:55.298Z,90.10
2022-11-01T01:47:23.891Z,89.64
2022-11-01T01:49:55.109Z,89.47
2022-11-01T01:52:22.190Z,89.53
2022-11-01T01:54:51.064Z,89.37
2022-11-01T01:57:19.053Z,90.27
2022-11-01T01:59:46.180Z,89.49
2022-11-01T02:02:14.264Z,89.36
2022-11-01T02:04:49.381Z,89.42
2022-11-01T02:07:15.931Z,89.80
2022-11-01T02:09:43.488Z,90.16
2022-11-01T02:12:12.312Z,90.01
2022-11-01T02:14:42.263Z,89.64
2022-11-01T02:17:35.966Z,89.77
2022-11-01T02:20:14.542Z,89.88
2022-11-01T02:23:03.077Z,89.42
2022-11-01T02:25:35.806Z,90.00
2022-11-01T02:28:22.214Z,89.64
2022-11-01T02:31:25.674Z,89.59
2022-11-01T02:34:23.731Z,89.87
2022-11-01T02:37:01.106Z,90.29
2022-11-01T02:39:32.842Z,90.46
2022-11-01T02:42:19.021Z,90.37
2022-11-01T02:44:53.003Z,90.24
2022-11-01T02:47:20.151Z,90.29
2022-11-01T02:49:50.071Z,90.48
2022-11-01T02:52:29.027Z,90.16
2022-11-01T02:55:03.528Z,90.57
2022-11-01T02:57:36.761Z,90.56
2022-11-01T03:00:23.166Z,90.55
2022-11-01T03:02:53.373Z,90.62
2022-11-01T03:05:24.264Z,90.57
2022-11-01T03:08:12.787Z,91.00
2022-11-01T03:10:51.555Z,91.15
2022-11-01T03:13:34.784Z,90.83
2022-11-01T03:16:25.920Z,90.92
2022-11-01T03:19:25.906Z,91.42
2022-11-01T03:22:13.407Z,91.33
2022-11-01T03:25:05.830Z,91.19
2022-11-01T03:27:34.689Z,91.12
2022-11-01T03:30:14.058Z,90.03
2022-11-01T03:32:56.508Z,89.74
2022-11-01T03:35:34.726Z,89.17
2022-11-01T03:38:06.961Z,89.20
2022-11-01T03:40:35.763Z,89.04
2022-11-01T03:43:07.352Z,88.13
2022-11-01T03:45:37.968Z,86.90
2022-11-01T03:48:05.738Z,85.28
2022-11-01T03:50:33.108Z,83.96
2022-11-01T03:52:59.908Z,82.16
2022-11-01T03:55:26.666Z,81.43
2022-11-01T03:57:58.215Z,81.40
2022-11-01T04:00:30.282Z,80.48
2022-11-01T04:02:58.302Z,79.13
2022-11-01T04:05:27.669Z,78.51
2022-11-01T04:07:54.971Z,77.57
2022-11-01T04:10:23.820Z,77.36
2022-11-01T04:12:52.174Z,75.78
2022-11-01T04:15:39.204Z,75.38
2022-11-01T04:18:35.160Z,76.21
2022-11-01T04:21:06.075Z,75.32
2022-11-01T04:23:33.705Z,75.53
2022-11-01T04:26:00.432Z,74.64
2022-11-01T04:28:27.013Z,74.31
2022-11-01T04:30:53.619Z,74.78
2022-11-01T04:33:20.472Z,75.09
2022-11-01T04:35:47.165Z,75.25
2022-11-01T04:38:14.652Z,75.15
2022-11-01T04:40:43.034Z,75.43
2022-11-01T04:43:10.427Z,74.32
2022-11-01T04:45:36.942Z,73.76
2022-11-01T04:48:14.063Z,74.17
2022-11-01T04:50:42.141Z,72.43
2022-11-01T04:53:10.269Z,72.91
2022-11-01T04:55:36.807Z,71.04
2022-11-01T04:58:04.432Z,70.56
2022-11-01T05:00:33.250Z,70.09
2022-11-01T05:03:07.724Z,70.79
2022-11-01T05:05:35.410Z,70.36
2022-11-01T05:08:10.807Z,70.27
2022-11-01T05:10:40.233Z,69.85
2022-11-01T05:13:07.474Z,68.18
2022-11-01T05:15:36.868Z,69.00
2022-11-01T05:18:06.581Z,68.48
2022-11-01T05:20:33.077Z,69.48
2022-11-01T05:23:01.125Z,67.75
2022-11-01T05:25:30.542Z,67.51
2022-11-01T05:28:05.866Z,67.15
2022-11-01T05:30:32.496Z,65.94
2022-11-01T05:33:00.470Z,65.83
2022-11-01T05:35:28.940Z,65.32
2022-11-01T05:37:56.283Z,64.96
2022-11-01T05:40:23.659Z,64.61
2022-11-01T05:42:50.521Z,65.35
2022-11-01T05:45:17.454Z,65.09
2022-11-01T05:47:44.110Z,64.65
2022-11-01T05:50:12.248Z,65.67
2022-11-01T05:52:39.364Z,64.52
2022-11-01T05:55:07.207Z,64.95
2022-11-01T05:57:34.468Z,65.93
2022-11-01T06:00:01.380Z,65.33
2022-11-01T06:02:31.847Z,65.59
2022-11-01T06:05:02.623Z,65.92
2022-11-01T06:07:29.696Z,65.92
2022-11-01T06:09:56.218Z,66.64
2022-11-01T06:12:25.826Z,66.40
2022-11-01T06:14:52.385Z,67.31
2022-11-01T06:17:19.336Z,67.96
2022-11-01T06:19:45.875Z,69.59
2022-11-01T06:22:12.366Z,70.07
2022-11-01T06:24:38.765Z,71.17
2022-11-01T06:27:08.577Z,70.49
2022-11-01T06:29:37.010Z,70.59
2022-11-01T06:32:04.999Z,69.53
2022-11-01T06:34:31.973Z,69.51
2022-11-01T06:36:58.637Z,68.65
2022-11-01T06:39:25.308Z,69.43
2022-11-01T06:41:52.090Z,70.64
2022-11-01T06:44:18.586Z,70.71
2022-11-01T06:46:45.057Z,71.09
2022-11-01T06:49:16.320Z,70.27
2022-11-01T06:51:45.468Z,70.14
2022-11-01T06:54:12.031Z,69.04
2022-11-01T06:56:38.958Z,68.39
2022-11-01T06:59:05.651Z,68.17
2022-11-01T07:01:32.663Z,68.10
2022-11-01T07:03:59.423Z,68.59
2022-11-01T07:06:29.102Z,67.39
2022-11-01T07:08:55.784Z,67.24
2022-11-01T07:11:26.264Z,67.18
2022-11-01T07:13:55.309Z,66.50
2022-11-01T07:16:21.810Z,66.90
2022-11-01T07:18:48.309Z,67.37
2022-11-01T07:21:14.865Z,67.66
2022-11-01T07:23:41.280Z,67.52
2022-11-01T07:26:07.782Z,67.27
2022-11-01T07:28:35.121Z,66.89
2022-11-01T07:31:01.617Z,68.15
2022-11-01T07:33:28.129Z,67.84
2022-11-01T07:35:54.651Z,67.61
2022-11-01T07:38:21.583Z,67.62
2022-11-01T07:40:49.840Z,68.01
2022-11-01T07:43:17.611Z,68.13
2022-11-01T07:45:44.781Z,68.52
2022-11-01T07:48:13.895Z,68.50
2022-11-01T07:50:42.240Z,68.01
2022-11-01T07:53:13.994Z,68.25
2022-11-01T07:55:41.778Z,68.65
2022-11-01T07:58:12.881Z,68.07
2022-11-01T08:00:39.957Z,68.11
2022-11-01T08:03:24.686Z,68.47
2022-11-01T08:05:51.184Z,68.95
2022-11-01T08:08:18.303Z,68.78
2022-11-01T08:10:45.900Z,68.70
2022-11-01T08:13:18.732Z,69.05
2022-11-01T08:15:46.600Z,68.89
2022-11-01T08:18:13.368Z,69.57
2022-11-01T08:20:41.101Z,69.41
2022-11-01T08:23:08.646Z,69.37
2022-11-01T08:25:35.390Z,69.70
2022-11-01T08:28:13.784Z,70.14
2022-11-01T08:30:41.631Z,69.77
2022-11-01T08:33:08.218Z,70.21
2022-11-01T08:35:35.786Z,69.88
2022-11-01T08:38:03.619Z,70.05
2022-11-01T08:40:31.576Z,70.29
2022-11-01T08:42:58.099Z,69.59
2022-11-01T08:45:25.681Z,70.03
2022-11-01T08:48:00.798Z,69.52
2022-11-01T08:50:28.080Z,69.77
2022-11-01T08:52:55.096Z,69.36
2022-11-01T08:55:22.690Z,69.38
2022-11-01T08:57:49.405Z,69.11
2022-11-01T09:00:18.052Z,69.34
2022-11-01T09:02:45.034Z,68.57
2022-11-01T09:05:11.605Z,68.52
2022-11-01T09:07:38.424Z,68.16
2022-11-01T09:10:05.565Z,68.16
2022-11-01T09:12:32.937Z,68.42
2022-11-01T09:14:59.665Z,67.73
2022-11-01T09:17:26.170Z,68.23
2022-11-01T09:19:52.762Z,68.54
2022-11-01T09:22:19.319Z,69.12
2022-11-01T09:24:46.010Z,69.35
2022-11-01T09:27:12.481Z,69.85
2022-11-01T09:29:39.188Z,69.93
2022-11-01T09:32:06.707Z,70.01
2022-11-01T09:34:33.739Z,70.44
2022-11-01T09:37:00.236Z,70.45
2022-11-01T09:39:27.603Z,69.50
2022-11-01T09:42:04.868Z,69.59
2022-11-01T09:44:44.026Z,68.34
2022-11-01T09:47:21.427Z,69.05
2022-11-01T09:49:52.725Z,68.51
2022-11-01T09:52:22.359Z,68.65
2022-11-01T09:54:49.270Z,68.40
2022-11-01T09:57:33.872Z,67.94
2022-11-01T10:00:19.980Z,68.00
2022-11-01T10:03:07.806Z,67.66
2022-11-01T10:05:48.818Z,67.03
2022-11-01T10:08:37.920Z,66.41
2022-11-01T10:11:35.412Z,66.41
2022-11-01T10:14:11.067Z,65.73
2022-11-01T10:16:41.894Z,65.50
2022-11-01T10:19:19.064Z,65.80
2022-11-01T10:21:53.091Z,66.19
2022-11-01T10:24:41.445Z,66.57
2022-11-01T10:27:18.476Z,65.44
2022-11-01T10:29:55.951Z,66.35
2022-11-01T10:32:34.949Z,65.57
2022-11-01T10:35:06.911Z,65.76
2022-11-01T10:37:57.398Z,66.21
2022-11-01T10:40:41.865Z,64.96
2022-11-01T10:43:15.297Z,66.13
2022-11-01T10:45:47.604Z,65.29
2022-11-01T10:48:31.703Z,65.23
2022-11-01T10:51:01.223Z,64.13
2022-11-01T10:53:30.442Z,64.36
2022-11-01T10:56:03.126Z,64.76
2022-11-01T10:58:55.076Z,64.49
2022-11-01T11:01:25.127Z,62.85
2022-11-01T11:03:53.270Z,63.38
2022-11-01T11:06:20.431Z,62.92
2022-11-01T11:08:52.887Z,63.47
2022-11-01T11:11:35.747Z,63.62
2022-11-01T11:14:05.828Z,63.55
2022-11-01T11:16:44.730Z,63.22
2022-11-01T11:19:12.019Z,62.95
2022-11-01T11:21:38.487Z,62.47
2022-11-01T11:24:05.215Z,62.71
2022-11-01T11:29:07.091Z,62.53
2022-11-01T11:31:35.004Z,62.84
2022-11-01T11:34:23.787Z,62.89
2022-11-01T11:36:51.923Z,62.76
2022-11-01T11:39:27.141Z,62.09
2022-11-01T11:41:53.961Z,63.24
2022-11-01T11:44:42.642Z,62.42
2022-11-01T11:47:34.850Z,62.50
2022-11-01T11:50:26.339Z,62.55
2022-11-01T11:53:06.557Z,62.53
2022-11-01T11:55:43.138Z,62.58
2022-11-01T11:58:28.703Z,62.11
2022-11-01T12:01:02.165Z,61.97
2022-11-01T12:03:29.722Z,62.38
2022-11-01T12:06:00.213Z,61.58
2022-11-01T12:08:36.397Z,62.37
2022-11-01T12:11:03.953Z,62.10
2022-11-01T12:13:38.303Z,62.08
2022-11-01T12:16:16.969Z,61.96
2022-11-01T12:18:50.543Z,61.59
2022-11-01T12:21:36.785Z,62.02
2022-11-01T12:24:21.538Z,61.80
2022-11-01T12:26:51.704Z,61.31
2022-11-01T12:29:43.764Z,61.64
2022-11-01T12:32:16.758Z,62.42
2022-11-01T12:34:47.663Z,61.47
2022-11-01T12:37:19.316Z,61.96
2022-11-01T12:39:48.952Z,61.52
2022-11-01T12:42:23.937Z,61.26
2022-11-01T12:44:56.809Z,61.36
2022-11-01T12:47:41.682Z,62.11
2022-11-01T12:50:27.120Z,61.78
2022-11-01T12:53:13.193Z,61.01
2022-11-01T12:55:42.328Z,61.93
2022-11-01T12:58:16.268Z,61.58
2022-11-01T13:01:07.666Z,61.85
2022-11-01T13:04:04.837Z,61.04
2022-11-01T13:06:43.737Z,61.34
2022-11-01T13:09:16.338Z,61.40
2022-11-01T13:11:59.541Z,61.46
2022-11-01T13:14:52.369Z,60.80
2022-11-01T13:17:22.900Z,61.66
2022-11-01T13:19:55.294Z,61.87
2022-11-01T13:22:51.229Z,61.84
2022-11-01T13:25:32.422Z,62.08
2022-11-01T13:28:16.008Z,61.50
2022-11-01T13:30:54.650Z,61.17
2022-11-01T13:33:22.032Z,61.22
2022-11-01T13:35:57.084Z,60.85
2022-11-01T13:38:32.399Z,61.70
2022-11-01T13:41:07.943Z,61.52
2022-11-01T13:43:45.528Z,61.09
2022-11-01T13:46:36.755Z,61.23
2022-11-01T13:49:09.128Z,61.17
2022-11-01T13:51:58.083Z,61.19
2022-11-01T13:54:35.074Z,60.87
2022-11-01T13:57:13.772Z,60.83
2022-11-01T13:59:44.382Z,61.67
2022-11-01T14:02:23.555Z,61.54
2022-11-01T14:05:10.951Z,61.35
2022-11-01T14:07:43.608Z,60.71
2022-11-01T14:10:31.371Z,60.70
2022-11-01T14:13:10.852Z,60.59
2022-11-01T14:15:55.576Z,60.56
2022-11-01T14:18:22.359Z,61.16
2022-11-01T14:20:53.736Z,61.64
2022-11-01T14:23:29.189Z,61.02
2022-11-01T14:26:21.077Z,60.95
2022-11-01T14:28:49.980Z,60.91
2022-11-01T14:31:19.806Z,60.38
2022-11-01T14:33:48.538Z,61.00
2022-11-01T14:36:19.543Z,60.53
2022-11-01T14:38:52.413Z,60.51
2022-11-01T14:41:20.557Z,61.06
2022-11-01T14:43:51.533Z,61.28
2022-11-01T14:46:28.267Z,61.28
2022-11-01T14:49:13.861Z,60.93
2022-11-01T14:51:51.882Z,61.23
2022-11-01T14:54:31.912Z,60.91
2022-11-01T14:56:59.013Z,61.74
2022-11-01T14:59:35.477Z,61.80
2022-11-01T15:02:07.022Z,61.51
2022-11-01T15:04:44.912Z,61.47
2022-11-01T15:07:27.665Z,61.77
2022-11-01T15:10:07.301Z,61.92
2022-11-01T15:12:46.603Z,60.97
2022-11-01T15:15:20.320Z,62.33
2022-11-01T15:17:54.935Z,61.41
2022-11-01T15:20:22.117Z,62.45
2022-11-01T15:22:53.024Z,62.54
2022-11-01T15:25:26.634Z,61.89
2022-11-01T15:27:55.369Z,62.44
2022-11-01T15:30:30.079Z,62.67
2022-11-01T15:33:21.330Z,63.00
2022-11-01T15:35:56.528Z,62.98
2022-11-01T15:38:23.516Z,62.83
2022-11-01T15:40:53.260Z,62.48
2022-11-01T15:43:26.806Z,62.74
2022-11-01T15:45:53.434Z,62.62
2022-11-01T15:48:24.623Z,62.53
2022-11-01T15:51:03.358Z,62.62
2022-11-01T15:53:33.564Z,62.71
2022-11-01T15:56:11.704Z,62.49
2022-11-01T15:58:46.802Z,62.58
2022-11-01T16:01:19.295Z,62.33
2022-11-01T16:03:55.709Z,62.06
2022-11-01T16:06:26.833Z,62.68
2022-11-01T16:09:02.565Z,62.61
2022-11-01T16:11:32.459Z,62.66
2022-11-01T16:14:02.026Z,61.94
2022-11-01T16:16:29.162Z,62.61
2022-11-01T16:18:55.701Z,62.47
2022-11-01T16:21:26.994Z,62.47
2022-11-01T16:24:15.816Z,62.34
2022-11-01T16:27:00.060Z,62.52
2022-11-01T16:29:48.390Z,63.03
2022-11-01T16:32:22.903Z,63.49
2022-11-01T16:34:50.822Z,63.62
2022-11-01T16:37:29.690Z,63.31
2022-11-01T16:39:59.031Z,63.58
2022-11-01T16:42:25.590Z,63.48
2022-11-01T16:44:55.994Z,63.88
2022-11-01T16:47:22.967Z,64.67
2022-11-01T16:49:51.937Z,63.76
2022-11-01T16:52:18.945Z,64.40
2022-11-01T16:54:49.832Z,63.94
2022-11-01T16:57:26.682Z,63.62
2022-11-01T16:59:57.722Z,63.56
2022-11-01T17:02:30.136Z,63.39
2022-11-01T17:05:20.689Z,63.18
2022-11-01T17:07:47.299Z,63.04
2022-11-01T17:10:22.169Z,64.02
2022-11-01T17:12:48.874Z,63.39
2022-11-01T17:15:15.629Z,63.21
2022-11-01T17:17:44.095Z,62.55
2022-11-01T17:20:16.689Z,62.94
2022-11-01T17:22:43.740Z,63.02
2022-11-01T17:25:16.545Z,62.95
2022-11-01T17:27:43.726Z,63.27
2022-11-01T17:30:10.575Z,62.85
2022-11-01T17:32:36.952Z,62.94
2022-11-01T17:35:03.842Z,62.69
2022-11-01T17:37:32.271Z,62.84
2022-11-01T17:40:00.708Z,63.20
2022-11-01T17:42:27.197Z,63.52
2022-11-01T17:44:53.878Z,63.12
2022-11-01T17:47:20.343Z,63.01
2022-11-01T17:49:48.189Z,62.63
2022-11-01T17:52:14.750Z,63.22
2022-11-01T17:54:41.305Z,63.02
2022-11-01T17:57:07.742Z,63.26
2022-11-01T17:59:35.219Z,63.71
2022-11-01T18:02:01.906Z,63.73
2022-11-01T18:04:34.057Z,63.65
2022-11-01T18:07:03.596Z,63.75
2022-11-01T18:09:30.713Z,64.18
2022-11-01T18:12:14.721Z,64.31
2022-11-01T18:15:08.185Z,64.48
2022-11-01T18:17:49.797Z,64.59
2022-11-01T18:20:39.974Z,64.28
2022-11-01T18:23:11.991Z,64.43
2022-11-01T18:25:42.412Z,64.42
2022-11-01T18:28:15.678Z,64.67
2022-11-01T18:30:47.115Z,65.07
2022-11-01T18:33:58.459Z,65.04
2022-11-01T18:36:33.571Z,65.14
2022-11-01T18:39:15.363Z,64.88
2022-11-01T18:41:44.451Z,65.11
2022-11-01T18:44:12.444Z,65.00
2022-11-01T18:47:14.459Z,65.44
2022-11-01T18:49:40.910Z,64.92
2022-11-01T18:52:14.199Z,65.02
2022-11-01T18:54:47.674Z,65.14
2022-11-01T18:57:17.450Z,65.14
2022-11-01T18:59:46.138Z,65.25
2022-11-01T19:02:15.740Z,65.41
2022-11-01T19:04:43.078Z,65.75
2022-11-01T19:07:35.171Z,65.48
2022-11-01T19:10:17.960Z,65.90
2022-11-01T19:12:48.038Z,65.63
2022-11-01T19:15:22.728Z,65.95
2022-11-01T19:17:56.350Z,66.10
2022-11-01T19:20:30.265Z,66.16
2022-11-01T19:22:59.847Z,65.91
2022-11-01T19:25:30.195Z,66.02
2022-11-01T19:28:04.190Z,65.40
2022-11-01T19:30:33.015Z,65.83
2022-11-01T19:33:12.482Z,66.04
2022-11-01T19:35:39.164Z,65.99
2022-11-01T19:38:05.933Z,65.93
2022-11-01T19:40:35.876Z,66.40
2022-11-01T19:43:13.620Z,66.70
2022-11-01T19:45:51.383Z,66.48
2022-11-01T19:48:25.250Z,68.88
2022-11-01T19:50:51.751Z,69.93
2022-11-01T19:53:40.051Z,69.59
2022-11-01T19:56:34.671Z,70.71
2022-11-01T19:59:03.670Z,71.11
2022-11-01T20:01:42.123Z,71.36
2022-11-01T20:04:14.792Z,72.00
2022-11-01T20:07:10.858Z,71.74
2022-11-01T20:09:38.990Z,71.84
2022-11-01T20:12:05.589Z,72.72
2022-11-01T20:14:33.432Z,72.38
2022-11-01T20:16:59.864Z,71.80
2022-11-01T20:19:26.370Z,72.40
2022-11-01T20:21:52.812Z,72.26
2022-11-01T20:24:19.341Z,72.79
2022-11-01T20:26:45.906Z,72.15
2022-11-01T20:29:12.372Z,72.18
2022-11-01T20:31:38.946Z,72.50
2022-11-01T20:34:05.476Z,72.86
2022-11-01T20:36:31.938Z,72.45
2022-11-01T20:38:58.434Z,72.87
2022-11-01T20:41:24.907Z,72.88
2022-11-01T20:43:51.381Z,73.14
2022-11-01T20:46:18.115Z,73.48
2022-11-01T20:48:47.452Z,74.68
2022-11-01T20:51:14.048Z,76.36
2022-11-01T20:53:41.210Z,76.79
2022-11-01T20:56:08.732Z,76.82
2022-11-01T20:58:40.180Z,78.22
2022-11-01T21:01:17.385Z,78.44
2022-11-01T21:03:44.518Z,78.76
2022-11-01T21:06:16.847Z,79.93
2022-11-01T21:08:47.010Z,80.70
2022-11-01T21:11:19.471Z,80.99
2022-11-01T21:13:45.865Z,80.65
2022-11-01T21:16:29.265Z,81.16
2022-11-01T21:19:02.195Z,81.90
2022-11-01T21:21:33.412Z,82.16
2022-11-01T21:24:02.111Z,82.95
2022-11-01T21:26:33.736Z,83.16
2022-11-01T21:29:35.663Z,83.26
2022-11-01T21:32:03.039Z,84.17
2022-11-01T21:34:31.515Z,84.03
2022-11-01T21:36:58.594Z,84.36
2022-11-01T21:39:32.750Z,84.30
2022-11-01T21:42:03.771Z,84.10
2022-11-01T21:44:45.391Z,83.53
2022-11-01T21:47:22.874Z,84.06
2022-11-01T21:49:50.753Z,83.43
2022-11-01T21:52:19.416Z,84.61
2022-11-01T21:54:46.797Z,84.28
2022-11-01T21:57:14.749Z,83.74
2022-11-01T21:59:42.086Z,83.58
2022-11-01T22:02:12.010Z,84.59
2022-11-01T22:04:39.057Z,84.93
2022-11-01T22:07:07.903Z,85.31
2022-11-01T22:09:36.017Z,86.38
2022-11-01T22:12:04.908Z,85.60
2022-11-01T22:14:32.028Z,86.70
2022-11-01T22:16:59.078Z,85.99
2022-11-01T22:19:25.534Z,86.95
2022-11-01T22:21:52.121Z,87.66
2022-11-01T22:24:18.785Z,87.91
2022-11-01T22:26:45.175Z,87.60
2022-11-01T22:29:11.644Z,88.68
2022-11-01T22:31:38.115Z,89.08
2022-11-01T22:34:04.775Z,88.79
2022-11-01T22:36:35.801Z,89.52
2022-11-01T22:39:12.356Z,89.85
2022-11-01T22:41:40.495Z,90.63
2022-11-01T22:44:13.645Z,91.14
2022-11-01T22:46:58.268Z,90.66
2022-11-01T22:49:37.537Z,90.95
2022-11-01T22:52:24.173Z,91.61
2022-11-01T22:54:52.480Z,91.33
2022-11-01T22:57:26.571Z,91.53
2022-11-01T22:59:54.809Z,91.63
2022-11-01T23:02:27.065Z,91.25
2022-11-01T23:05:16.924Z,91.75
2022-11-01T23:07:52.445Z,92.01
2022-11-01T23:10:27.211Z,91.67
2022-11-01T23:13:39.185Z,92.16
2022-11-01T23:16:30.704Z,91.59
2022-11-01T23:19:01.228Z,91.74
2022-11-01T23:21:28.090Z,92.23
2022-11-01T23:23:55.067Z,91.85
2022-11-01T23:26:23.007Z,92.32
2022-11-01T23:28:55.367Z,91.99
2022-11-01T23:31:24.459Z,92.33
2022-11-01T23:33:51.537Z,91.56
2022-11-01T23:36:24.051Z,91.52
2022-11-01T23:41:36.898Z,92.76
2022-11-01T23:44:18.057Z,92.59
2022-11-01T23:46:44.658Z,92.34
2022-11-01T23:49:23.970Z,92.69
2022-11-01T23:51:51.730Z,92.68
2022-11-01T23:54:39.910Z,93.15
2022-11-01T23:57:06.392Z,92.45
2022-11-01T23:59:33.011Z,92.92
